sensor_id;sensor_type;location;lat;lon;timestamp;temperature;humidity
1091;DHT22;534;48.704;9.122;2022-09-01T03:01:39;17.10;83.30
1091;DHT22;534;48.704;9.122;2022-09-01T03:04:07;17.10;83.20
1091;DHT22;534;48.704;9.122;2022-09-01T03:06:36;17.10;83.30
1091;DHT22;534;48.704;9.122;2022-09-01T03:09:04;17.10;83.30
1091;DHT22;534;48.704;9.122;2022-09-01T03:11:34;17.10;83.10
1091;DHT22;534;48.704;9.122;2022-09-01T03:14:02;17.00;83.30
1091;DHT22;534;48.704;9.122;2022-09-01T03:16:29;17.00;83.20
1091;DHT22;534;48.704;9.122;2022-09-01T03:18:58;17.00;83.30
1091;DHT22;534;48.704;9.122;2022-09-01T03:21:27;17.00;83.40
1091;DHT22;534;48.704;9.122;2022-09-01T03:23:56;17.00;83.40
1091;DHT22;534;48.704;9.122;2022-09-01T03:26:26;17.00;83.50
1091;DHT22;534;48.704;9.122;2022-09-01T03:28:53;16.90;83.50
1091;DHT22;534;48.704;9.122;2022-09-01T03:31:20;16.90;83.50
1091;DHT22;534;48.704;9.122;2022-09-01T03:33:47;16.90;83.40
1091;DHT22;534;48.704;9.122;2022-09-01T03:36:16;17.00;83.50
1091;DHT22;534;48.704;9.122;2022-09-01T03:38:44;17.00;83.40
1091;DHT22;534;48.704;9.122;2022-09-01T03:41:14;17.00;83.20
1091;DHT22;534;48.704;9.122;2022-09-01T03:43:42;16.90;83.30
1091;DHT22;534;48.704;9.122;2022-09-01T03:46:10;17.00;83.10
1091;DHT22;534;48.704;9.122;2022-09-01T03:48:40;17.00;82.90
1091;DHT22;534;48.704;9.122;2022-09-01T03:51:07;17.00;82.90
1091;DHT22;534;48.704;9.122;2022-09-01T03:53:37;17.00;83.10
1091;DHT22;534;48.704;9.122;2022-09-01T03:56:05;16.90;83.00
1091;DHT22;534;48.704;9.122;2022-09-01T03:58:33;16.90;82.90
1091;DHT22;534;48.704;9.122;2022-09-01T04:01:01;16.90;82.90
1091;DHT22;534;48.704;9.122;2022-09-01T04:03:32;16.90;82.90
1091;DHT22;534;48.704;9.122;2022-09-01T04:06:00;16.90;82.90
1091;DHT22;534;48.704;9.122;2022-09-01T04:08:28;16.90;82.90
1091;DHT22;534;48.704;9.122;2022-09-01T04:11:00;16.90;82.90
1091;DHT22;534;48.704;9.122;2022-09-01T04:13:29;16.90;82.90
1091;DHT22;534;48.704;9.122;2022-09-01T04:15:57;16.80;83.10
1091;DHT22;534;48.704;9.122;2022-09-01T04:18:24;16.90;82.90
1091;DHT22;534;48.704;9.122;2022-09-01T04:20:52;16.90;82.90
1091;DHT22;534;48.704;9.122;2022-09-01T04:23:21;16.90;82.90
1091;DHT22;534;48.704;9.122;2022-09-01T04:25:53;16.80;83.20
1091;DHT22;534;48.704;9.122;2022-09-01T04:28:23;16.90;83.40
1091;DHT22;534;48.704;9.122;2022-09-01T04:30:52;16.90;83.60
1091;DHT22;534;48.704;9.122;2022-09-01T04:33:21;17.00;83.40
1091;DHT22;534;48.704;9.122;2022-09-01T04:35:48;17.00;83.40
1091;DHT22;534;48.704;9.122;2022-09-01T04:38:20;17.00;83.60
1091;DHT22;534;48.704;9.122;2022-09-01T04:40:47;17.00;83.70
1091;DHT22;534;48.704;9.122;2022-09-01T04:43:14;17.00;84.00
1091;DHT22;534;48.704;9.122;2022-09-01T04:45:45;17.10;84.10
1091;DHT22;534;48.704;9.122;2022-09-01T04:48:14;17.10;84.30
1091;DHT22;534;48.704;9.122;2022-09-01T04:50:41;17.10;84.60
1091;DHT22;534;48.704;9.122;2022-09-01T04:53:08;17.20;84.80
1091;DHT22;534;48.704;9.122;2022-09-01T04:55:37;17.20;84.70
1091;DHT22;534;48.704;9.122;2022-09-01T04:58:08;17.20;84.60
1091;DHT22;534;48.704;9.122;2022-09-01T05:00:38;17.30;84.50
1091;DHT22;534;48.704;9.122;2022-09-01T05:03:07;17.30;84.40
1091;DHT22;534;48.704;9.122;2022-09-01T05:05:37;17.30;84.50
1091;DHT22;534;48.704;9.122;2022-09-01T05:08:07;17.30;84.60
1091;DHT22;534;48.704;9.122;2022-09-01T05:10:38;17.30;84.70
1091;DHT22;534;48.704;9.122;2022-09-01T05:13:06;17.40;84.70
1091;DHT22;534;48.704;9.122;2022-09-01T05:15:35;17.40;84.70
1091;DHT22;534;48.704;9.122;2022-09-01T05:18:02;17.40;84.90
1091;DHT22;534;48.704;9.122;2022-09-01T05:20:37;17.50;85.10
1091;DHT22;534;48.704;9.122;2022-09-01T05:23:07;17.60;85.30
1091;DHT22;534;48.704;9.122;2022-09-01T05:25:38;17.70;85.40
1091;DHT22;534;48.704;9.122;2022-09-01T05:28:05;17.90;85.20
1091;DHT22;534;48.704;9.122;2022-09-01T05:30:34;18.00;85.00
1091;DHT22;534;48.704;9.122;2022-09-01T05:33:03;18.20;84.10
1091;DHT22;534;48.704;9.122;2022-09-01T05:35:34;18.40;83.70
1091;DHT22;534;48.704;9.122;2022-09-01T05:38:02;18.50;83.70
1091;DHT22;534;48.704;9.122;2022-09-01T05:40:29;18.60;82.90
1091;DHT22;534;48.704;9.122;2022-09-01T05:42:56;18.70;82.30
1091;DHT22;534;48.704;9.122;2022-09-01T05:45:23;18.90;82.20
1091;DHT22;534;48.704;9.122;2022-09-01T05:47:51;19.00;81.80
1091;DHT22;534;48.704;9.122;2022-09-01T05:50:19;19.20;81.60
1091;DHT22;534;48.704;9.122;2022-09-01T05:52:46;19.30;81.40
1091;DHT22;534;48.704;9.122;2022-09-01T05:55:16;19.50;80.40
1091;DHT22;534;48.704;9.122;2022-09-01T05:57:43;19.50;79.80
1091;DHT22;534;48.704;9.122;2022-09-01T06:00:13;19.50;79.30
1091;DHT22;534;48.704;9.122;2022-09-01T06:02:42;19.50;79.10
1091;DHT22;534;48.704;9.122;2022-09-01T06:05:09;19.40;78.90
1091;DHT22;534;48.704;9.122;2022-09-01T06:07:38;19.40;79.10
1091;DHT22;534;48.704;9.122;2022-09-01T06:10:07;19.40;79.00
1091;DHT22;534;48.704;9.122;2022-09-01T06:12:35;19.40;79.10
1091;DHT22;534;48.704;9.122;2022-09-01T06:15:04;19.40;79.60
1091;DHT22;534;48.704;9.122;2022-09-01T06:17:40;19.30;80.00
1091;DHT22;534;48.704;9.122;2022-09-01T06:20:08;19.30;80.30
1091;DHT22;534;48.704;9.122;2022-09-01T06:22:35;19.20;80.80
1091;DHT22;534;48.704;9.122;2022-09-01T06:25:02;19.20;81.20
1091;DHT22;534;48.704;9.122;2022-09-01T06:27:31;19.20;81.30
1091;DHT22;534;48.704;9.122;2022-09-01T06:29:59;19.20;81.30
1091;DHT22;534;48.704;9.122;2022-09-01T06:32:27;19.10;81.50
1091;DHT22;534;48.704;9.122;2022-09-01T06:34:54;19.00;82.10
1091;DHT22;534;48.704;9.122;2022-09-01T06:37:22;18.80;82.60
1091;DHT22;534;48.704;9.122;2022-09-01T06:39:49;18.90;82.50
1091;DHT22;534;48.704;9.122;2022-09-01T06:42:16;18.90;82.60
1091;DHT22;534;48.704;9.122;2022-09-01T06:44:43;18.90;82.70
1091;DHT22;534;48.704;9.122;2022-09-01T06:47:13;19.00;82.70
1091;DHT22;534;48.704;9.122;2022-09-01T06:49:40;19.10;82.60
1091;DHT22;534;48.704;9.122;2022-09-01T06:52:07;19.10;82.80
1091;DHT22;534;48.704;9.122;2022-09-01T06:54:36;19.20;83.10
1091;DHT22;534;48.704;9.122;2022-09-01T06:57:04;19.30;83.60
1091;DHT22;534;48.704;9.122;2022-09-01T06:59:31;19.50;82.80
1091;DHT22;534;48.704;9.122;2022-09-01T07:01:58;19.60;82.60
1091;DHT22;534;48.704;9.122;2022-09-01T07:04:27;19.70;81.50
1091;DHT22;534;48.704;9.122;2022-09-01T07:06:54;19.80;81.30
1091;DHT22;534;48.704;9.122;2022-09-01T07:09:22;19.90;81.00
1091;DHT22;534;48.704;9.122;2022-09-01T07:11:48;20.00;80.30
1091;DHT22;534;48.704;9.122;2022-09-01T07:14:17;20.10;80.40
1091;DHT22;534;48.704;9.122;2022-09-01T07:16:45;20.10;80.10
1091;DHT22;534;48.704;9.122;2022-09-01T07:19:12;20.10;80.20
1091;DHT22;534;48.704;9.122;2022-09-01T07:21:41;20.10;81.00
1091;DHT22;534;48.704;9.122;2022-09-01T07:24:09;20.00;81.00
1091;DHT22;534;48.704;9.122;2022-09-01T07:26:36;19.90;80.20
1091;DHT22;534;48.704;9.122;2022-09-01T07:29:04;19.90;80.60
1091;DHT22;534;48.704;9.122;2022-09-01T07:31:33;19.90;81.00
1091;DHT22;534;48.704;9.122;2022-09-01T07:34:04;19.80;81.10
1091;DHT22;534;48.704;9.122;2022-09-01T07:36:37;19.90;81.70
1091;DHT22;534;48.704;9.122;2022-09-01T07:39:05;20.00;82.00
1091;DHT22;534;48.704;9.122;2022-09-01T07:41:33;20.00;81.90
1091;DHT22;534;48.704;9.122;2022-09-01T07:44:00;20.00;81.90
1091;DHT22;534;48.704;9.122;2022-09-01T07:46:28;20.10;81.60
1091;DHT22;534;48.704;9.122;2022-09-01T07:48:58;20.10;81.30
1091;DHT22;534;48.704;9.122;2022-09-01T07:51:26;20.00;81.50
1091;DHT22;534;48.704;9.122;2022-09-01T07:53:54;20.00;81.00
1091;DHT22;534;48.704;9.122;2022-09-01T07:56:23;19.60;81.60
1091;DHT22;534;48.704;9.122;2022-09-01T07:58:51;19.50;80.60
1091;DHT22;534;48.704;9.122;2022-09-01T08:01:20;19.50;81.20
1091;DHT22;534;48.704;9.122;2022-09-01T08:03:49;19.30;81.40
1091;DHT22;534;48.704;9.122;2022-09-01T08:06:17;19.40;81.90
1091;DHT22;534;48.704;9.122;2022-09-01T08:08:46;19.50;81.80
1091;DHT22;534;48.704;9.122;2022-09-01T08:11:16;19.50;82.00
1091;DHT22;534;48.704;9.122;2022-09-01T08:13:45;19.50;82.10
1091;DHT22;534;48.704;9.122;2022-09-01T08:16:13;19.40;82.00
1091;DHT22;534;48.704;9.122;2022-09-01T08:18:39;19.50;82.30
1091;DHT22;534;48.704;9.122;2022-09-01T08:21:07;19.40;82.30
1091;DHT22;534;48.704;9.122;2022-09-01T08:23:34;19.60;82.70
1091;DHT22;534;48.704;9.122;2022-09-01T08:26:05;19.60;82.80
1091;DHT22;534;48.704;9.122;2022-09-01T08:28:32;19.70;82.90
1091;DHT22;534;48.704;9.122;2022-09-01T08:31:05;19.90;82.40
1091;DHT22;534;48.704;9.122;2022-09-01T08:33:32;20.00;81.10
1091;DHT22;534;48.704;9.122;2022-09-01T08:36:00;20.00;81.30
1091;DHT22;534;48.704;9.122;2022-09-01T08:38:27;20.00;80.80
1091;DHT22;534;48.704;9.122;2022-09-01T08:40:56;20.10;79.90
1091;DHT22;534;48.704;9.122;2022-09-01T08:43:30;20.00;79.70
1091;DHT22;534;48.704;9.122;2022-09-01T08:46:05;19.90;79.90
1091;DHT22;534;48.704;9.122;2022-09-01T08:48:38;20.00;80.70
1091;DHT22;534;48.704;9.122;2022-09-01T08:51:25;20.00;78.00
1091;DHT22;534;48.704;9.122;2022-09-01T08:54:02;19.90;79.80
1091;DHT22;534;48.704;9.122;2022-09-01T08:56:31;20.00;79.30
1091;DHT22;534;48.704;9.122;2022-09-01T08:59:00;19.90;79.70
1091;DHT22;534;48.704;9.122;2022-09-01T09:01:33;19.80;79.80
1091;DHT22;534;48.704;9.122;2022-09-01T09:04:14;19.80;79.60
1091;DHT22;534;48.704;9.122;2022-09-01T09:06:52;19.90;79.90
1091;DHT22;534;48.704;9.122;2022-09-01T09:09:20;20.10;80.20
1091;DHT22;534;48.704;9.122;2022-09-01T09:12:05;20.50;79.10
1091;DHT22;534;48.704;9.122;2022-09-01T09:14:53;20.80;78.70
1091;DHT22;534;48.704;9.122;2022-09-01T09:17:29;20.90;77.20
1091;DHT22;534;48.704;9.122;2022-09-01T09:19:59;21.10;77.20
1091;DHT22;534;48.704;9.122;2022-09-01T09:22:26;20.90;74.30
1091;DHT22;534;48.704;9.122;2022-09-01T09:24:58;21.00;74.70
1091;DHT22;534;48.704;9.122;2022-09-01T09:27:30;21.00;75.10
1091;DHT22;534;48.704;9.122;2022-09-01T09:29:59;21.20;75.70
1091;DHT22;534;48.704;9.122;2022-09-01T09:32:44;21.30;74.40
1091;DHT22;534;48.704;9.122;2022-09-01T09:35:24;21.20;74.70
1091;DHT22;534;48.704;9.122;2022-09-01T09:37:52;21.10;72.80
1091;DHT22;534;48.704;9.122;2022-09-01T09:40:21;21.10;72.90
1091;DHT22;534;48.704;9.122;2022-09-01T09:43:05;21.00;72.90
1091;DHT22;534;48.704;9.122;2022-09-01T09:45:34;21.10;73.30
1091;DHT22;534;48.704;9.122;2022-09-01T09:48:06;20.90;73.60
1091;DHT22;534;48.704;9.122;2022-09-01T09:50:36;20.80;74.80
1091;DHT22;534;48.704;9.122;2022-09-01T09:53:13;21.00;74.10
1091;DHT22;534;48.704;9.122;2022-09-01T09:55:53;21.20;74.00
1091;DHT22;534;48.704;9.122;2022-09-01T09:58:22;21.20;74.10
1091;DHT22;534;48.704;9.122;2022-09-01T10:01:03;21.20;73.20
1091;DHT22;534;48.704;9.122;2022-09-01T10:03:40;21.10;73.00
1091;DHT22;534;48.704;9.122;2022-09-01T10:06:12;20.80;73.60
1091;DHT22;534;48.704;9.122;2022-09-01T10:08:41;20.90;72.70
1091;DHT22;534;48.704;9.122;2022-09-01T10:11:23;21.10;73.10
1091;DHT22;534;48.704;9.122;2022-09-01T10:13:51;21.00;73.00
1091;DHT22;534;48.704;9.122;2022-09-01T10:16:23;21.10;72.80
1091;DHT22;534;48.704;9.122;2022-09-01T10:18:54;21.10;71.40
1091;DHT22;534;48.704;9.122;2022-09-01T10:21:29;21.20;71.90
1091;DHT22;534;48.704;9.122;2022-09-01T10:23:57;21.10;71.90
1091;DHT22;534;48.704;9.122;2022-09-01T10:26:28;21.20;71.40
1091;DHT22;534;48.704;9.122;2022-09-01T10:28:58;21.40;70.90
1091;DHT22;534;48.704;9.122;2022-09-01T10:31:27;21.40;70.20
1091;DHT22;534;48.704;9.122;2022-09-01T10:33:56;21.00;71.90
1091;DHT22;534;48.704;9.122;2022-09-01T10:36:24;20.90;72.00
1091;DHT22;534;48.704;9.122;2022-09-01T10:38:50;21.00;71.80
1091;DHT22;534;48.704;9.122;2022-09-01T10:41:51;20.80;71.80
1091;DHT22;534;48.704;9.122;2022-09-01T10:44:23;21.10;70.60
1091;DHT22;534;48.704;9.122;2022-09-01T10:46:55;21.10;69.20
1091;DHT22;534;48.704;9.122;2022-09-01T10:53:04;21.10;70.60
1091;DHT22;534;48.704;9.122;2022-09-01T10:55:35;21.20;69.90
1091;DHT22;534;48.704;9.122;2022-09-01T10:58:23;21.20;69.60
1091;DHT22;534;48.704;9.122;2022-09-01T11:00:55;21.40;70.30
1091;DHT22;534;48.704;9.122;2022-09-01T11:03:52;21.50;68.60
1091;DHT22;534;48.704;9.122;2022-09-01T11:06:51;21.50;68.20
1091;DHT22;534;48.704;9.122;2022-09-01T11:09:26;21.50;69.00
1091;DHT22;534;48.704;9.122;2022-09-01T11:14:58;21.10;70.70
1091;DHT22;534;48.704;9.122;2022-09-01T11:17:26;21.30;70.90
1091;DHT22;534;48.704;9.122;2022-09-01T11:19:57;21.70;69.70
1091;DHT22;534;48.704;9.122;2022-09-01T11:22:31;22.10;69.10
1091;DHT22;534;48.704;9.122;2022-09-01T11:25:35;22.40;69.10
1091;DHT22;534;48.704;9.122;2022-09-01T11:31:25;22.90;65.30
1091;DHT22;534;48.704;9.122;2022-09-01T11:34:15;23.10;65.10
1091;DHT22;534;48.704;9.122;2022-09-01T11:36:56;23.40;64.30
1091;DHT22;534;48.704;9.122;2022-09-01T11:39:31;23.30;64.50
1091;DHT22;534;48.704;9.122;2022-09-01T11:42:02;23.10;65.60
1091;DHT22;534;48.704;9.122;2022-09-01T11:44:35;23.10;65.60
1091;DHT22;534;48.704;9.122;2022-09-01T11:47:08;23.20;64.50
1091;DHT22;534;48.704;9.122;2022-09-01T11:49:38;22.70;64.90
1091;DHT22;534;48.704;9.122;2022-09-01T11:52:14;22.40;65.20
1091;DHT22;534;48.704;9.122;2022-09-01T11:54:42;22.70;65.30
1091;DHT22;534;48.704;9.122;2022-09-01T11:57:22;22.70;64.80
1091;DHT22;534;48.704;9.122;2022-09-01T11:59:49;23.00;65.40
1091;DHT22;534;48.704;9.122;2022-09-01T12:02:18;22.80;64.50
1091;DHT22;534;48.704;9.122;2022-09-01T12:04:45;23.10;65.00
1091;DHT22;534;48.704;9.122;2022-09-01T12:07:24;23.20;63.40
1091;DHT22;534;48.704;9.122;2022-09-01T12:10:01;23.00;64.70
1091;DHT22;534;48.704;9.122;2022-09-01T12:12:32;22.80;64.30
1091;DHT22;534;48.704;9.122;2022-09-01T12:15:02;23.00;64.10
1091;DHT22;534;48.704;9.122;2022-09-01T12:17:31;23.40;62.50
1091;DHT22;534;48.704;9.122;2022-09-01T12:20:20;23.20;64.10
1091;DHT22;534;48.704;9.122;2022-09-01T12:22:47;23.00;65.80
1091;DHT22;534;48.704;9.122;2022-09-01T12:25:19;23.20;65.40
1091;DHT22;534;48.704;9.122;2022-09-01T12:27:49;23.60;66.00
1091;DHT22;534;48.704;9.122;2022-09-01T12:30:25;23.90;63.80
1091;DHT22;534;48.704;9.122;2022-09-01T12:32:52;24.20;62.20
1091;DHT22;534;48.704;9.122;2022-09-01T12:35:21;24.20;61.90
1091;DHT22;534;48.704;9.122;2022-09-01T12:37:48;24.10;62.70
1091;DHT22;534;48.704;9.122;2022-09-01T12:40:22;24.30;64.30
1091;DHT22;534;48.704;9.122;2022-09-01T12:42:51;24.80;62.00
1091;DHT22;534;48.704;9.122;2022-09-01T12:45:41;25.10;60.70
1091;DHT22;534;48.704;9.122;2022-09-01T12:48:23;25.20;60.60
1091;DHT22;534;48.704;9.122;2022-09-01T12:50:50;24.90;59.60
1091;DHT22;534;48.704;9.122;2022-09-01T12:53:24;24.50;60.80
1091;DHT22;534;48.704;9.122;2022-09-01T12:56:02;24.20;62.10
1091;DHT22;534;48.704;9.122;2022-09-01T12:58:31;24.00;62.50
1091;DHT22;534;48.704;9.122;2022-09-01T13:01:01;23.90;62.40
1091;DHT22;534;48.704;9.122;2022-09-01T13:03:30;24.10;61.90
1091;DHT22;534;48.704;9.122;2022-09-01T13:05:59;23.90;61.80
1091;DHT22;534;48.704;9.122;2022-09-01T13:08:27;23.90;61.80
1091;DHT22;534;48.704;9.122;2022-09-01T13:10:56;23.90;61.80
1091;DHT22;534;48.704;9.122;2022-09-01T13:13:25;23.80;62.60
1091;DHT22;534;48.704;9.122;2022-09-01T13:15:55;23.70;63.50
1091;DHT22;534;48.704;9.122;2022-09-01T13:18:26;23.80;62.90
1091;DHT22;534;48.704;9.122;2022-09-01T13:20:55;24.20;62.50
1091;DHT22;534;48.704;9.122;2022-09-01T13:23:22;24.60;62.40
1091;DHT22;534;48.704;9.122;2022-09-01T13:25:49;24.70;61.50
1091;DHT22;534;48.704;9.122;2022-09-01T13:28:16;24.90;60.00
1091;DHT22;534;48.704;9.122;2022-09-01T13:30:52;24.90;58.20
1091;DHT22;534;48.704;9.122;2022-09-01T13:33:21;24.70;57.90
1091;DHT22;534;48.704;9.122;2022-09-01T13:35:48;24.40;59.20
1091;DHT22;534;48.704;9.122;2022-09-01T13:38:15;24.50;58.20
1091;DHT22;534;48.704;9.122;2022-09-01T13:40:42;24.30;57.90
1091;DHT22;534;48.704;9.122;2022-09-01T13:43:10;24.20;60.10
1091;DHT22;534;48.704;9.122;2022-09-01T13:45:37;24.20;59.80
1091;DHT22;534;48.704;9.122;2022-09-01T13:48:05;24.20;60.20
1091;DHT22;534;48.704;9.122;2022-09-01T13:50:34;24.30;61.10
1091;DHT22;534;48.704;9.122;2022-09-01T13:53:01;24.70;61.40
1091;DHT22;534;48.704;9.122;2022-09-01T13:55:30;25.10;59.40
1091;DHT22;534;48.704;9.122;2022-09-01T13:57:57;25.40;58.80
1091;DHT22;534;48.704;9.122;2022-09-01T14:00:25;25.50;58.60
1091;DHT22;534;48.704;9.122;2022-09-01T14:02:55;25.50;58.80
1091;DHT22;534;48.704;9.122;2022-09-01T14:05:23;25.50;58.20
1091;DHT22;534;48.704;9.122;2022-09-01T14:07:52;25.80;58.60
1091;DHT22;534;48.704;9.122;2022-09-01T14:10:21;25.70;58.00
1091;DHT22;534;48.704;9.122;2022-09-01T14:12:48;25.60;58.50
1091;DHT22;534;48.704;9.122;2022-09-01T14:15:17;25.70;58.60
1091;DHT22;534;48.704;9.122;2022-09-01T14:17:45;25.90;58.80
1091;DHT22;534;48.704;9.122;2022-09-01T14:20:15;25.90;58.30
1091;DHT22;534;48.704;9.122;2022-09-01T14:22:43;26.00;57.40
1091;DHT22;534;48.704;9.122;2022-09-01T14:25:12;25.90;57.60
1091;DHT22;534;48.704;9.122;2022-09-01T14:27:39;26.10;57.50
1091;DHT22;534;48.704;9.122;2022-09-01T14:30:09;25.80;58.00
1091;DHT22;534;48.704;9.122;2022-09-01T14:32:36;25.60;57.60
1091;DHT22;534;48.704;9.122;2022-09-01T14:35:04;25.60;56.70
1091;DHT22;534;48.704;9.122;2022-09-01T14:37:32;25.80;56.60
1091;DHT22;534;48.704;9.122;2022-09-01T14:39:59;26.10;56.20
1091;DHT22;534;48.704;9.122;2022-09-01T14:42:27;26.40;55.00
1091;DHT22;534;48.704;9.122;2022-09-01T14:44:55;26.70;53.40
1091;DHT22;534;48.704;9.122;2022-09-01T14:47:22;26.70;54.10
1091;DHT22;534;48.704;9.122;2022-09-01T14:49:49;27.00;53.60
1091;DHT22;534;48.704;9.122;2022-09-01T14:52:16;27.90;51.30
1091;DHT22;534;48.704;9.122;2022-09-01T14:54:43;28.80;49.70
1091;DHT22;534;48.704;9.122;2022-09-01T14:57:10;29.90;49.00
1091;DHT22;534;48.704;9.122;2022-09-01T14:59:39;30.80;45.90
1091;DHT22;534;48.704;9.122;2022-09-01T15:02:07;31.20;45.40
1091;DHT22;534;48.704;9.122;2022-09-01T15:04:34;31.50;44.90
1091;DHT22;534;48.704;9.122;2022-09-01T15:07:01;31.60;44.70
1091;DHT22;534;48.704;9.122;2022-09-01T15:09:29;31.10;44.30
1091;DHT22;534;48.704;9.122;2022-09-01T15:11:56;31.00;44.90
1091;DHT22;534;48.704;9.122;2022-09-01T15:14:23;31.10;44.90
1091;DHT22;534;48.704;9.122;2022-09-01T15:16:51;31.00;45.10
1091;DHT22;534;48.704;9.122;2022-09-01T15:19:18;30.90;45.00
1091;DHT22;534;48.704;9.122;2022-09-01T15:21:45;30.30;46.20
1091;DHT22;534;48.704;9.122;2022-09-01T15:24:13;29.80;46.40
1091;DHT22;534;48.704;9.122;2022-09-01T15:26:39;29.90;46.60
1091;DHT22;534;48.704;9.122;2022-09-01T15:29:06;29.80;46.90
1091;DHT22;534;48.704;9.122;2022-09-01T15:31:34;29.50;47.60
1091;DHT22;534;48.704;9.122;2022-09-01T15:34:03;28.90;47.80
1091;DHT22;534;48.704;9.122;2022-09-01T15:36:30;27.90;50.00
1091;DHT22;534;48.704;9.122;2022-09-01T15:38:59;26.60;52.20
1091;DHT22;534;48.704;9.122;2022-09-01T15:41:28;26.10;53.40
1091;DHT22;534;48.704;9.122;2022-09-01T15:43:56;25.50;54.80
1091;DHT22;534;48.704;9.122;2022-09-01T15:46:24;25.00;56.50
1091;DHT22;534;48.704;9.122;2022-09-01T15:48:56;24.80;57.20
1091;DHT22;534;48.704;9.122;2022-09-01T15:51:31;24.90;57.40
1091;DHT22;534;48.704;9.122;2022-09-01T15:54:03;24.90;57.50
1091;DHT22;534;48.704;9.122;2022-09-01T15:56:30;24.50;58.40
1091;DHT22;534;48.704;9.122;2022-09-01T15:58:58;24.40;58.80
1091;DHT22;534;48.704;9.122;2022-09-01T16:01:25;24.40;58.20
1091;DHT22;534;48.704;9.122;2022-09-01T16:03:53;24.40;57.80
1091;DHT22;534;48.704;9.122;2022-09-01T16:06:20;24.50;57.70
1091;DHT22;534;48.704;9.122;2022-09-01T16:08:49;24.50;57.70
1091;DHT22;534;48.704;9.122;2022-09-01T16:11:19;24.40;58.10
1091;DHT22;534;48.704;9.122;2022-09-01T16:13:48;24.20;58.60
1091;DHT22;534;48.704;9.122;2022-09-01T16:16:30;24.20;59.00
1091;DHT22;534;48.704;9.122;2022-09-01T16:19:02;24.10;59.30
1091;DHT22;534;48.704;9.122;2022-09-01T16:21:37;24.00;59.10
1091;DHT22;534;48.704;9.122;2022-09-01T16:24:09;23.90;58.60
1091;DHT22;534;48.704;9.122;2022-09-01T16:26:37;23.80;59.20
1091;DHT22;534;48.704;9.122;2022-09-01T16:29:08;23.70;58.80
1091;DHT22;534;48.704;9.122;2022-09-01T16:31:36;23.30;60.10
1091;DHT22;534;48.704;9.122;2022-09-01T16:34:12;23.10;61.00
1091;DHT22;534;48.704;9.122;2022-09-01T16:36:52;23.10;61.00
1091;DHT22;534;48.704;9.122;2022-09-01T16:39:30;23.00;61.60
1091;DHT22;534;48.704;9.122;2022-09-01T16:42:09;23.00;60.40
1091;DHT22;534;48.704;9.122;2022-09-01T16:44:44;22.60;60.40
1091;DHT22;534;48.704;9.122;2022-09-01T16:50:14;22.80;60.60
1091;DHT22;534;48.704;9.122;2022-09-01T16:53:17;22.70;60.70
1091;DHT22;534;48.704;9.122;2022-09-01T16:55:57;22.70;61.30
1091;DHT22;534;48.704;9.122;2022-09-01T16:58:28;22.70;61.70
1091;DHT22;534;48.704;9.122;2022-09-01T17:01:08;22.80;61.90
1091;DHT22;534;48.704;9.122;2022-09-01T17:03:44;22.80;61.90
1091;DHT22;534;48.704;9.122;2022-09-01T17:06:21;22.70;62.30
1091;DHT22;534;48.704;9.122;2022-09-01T17:09:01;22.50;62.70
1091;DHT22;534;48.704;9.122;2022-09-01T17:11:33;22.50;63.50
1091;DHT22;534;48.704;9.122;2022-09-01T17:14:05;22.40;64.10
1091;DHT22;534;48.704;9.122;2022-09-01T17:16:36;22.40;64.30
1091;DHT22;534;48.704;9.122;2022-09-01T17:19:06;22.40;64.50
1091;DHT22;534;48.704;9.122;2022-09-01T17:21:37;22.40;64.80
1091;DHT22;534;48.704;9.122;2022-09-01T17:24:16;22.50;64.40
1091;DHT22;534;48.704;9.122;2022-09-01T17:26:45;22.30;64.10
1091;DHT22;534;48.704;9.122;2022-09-01T17:29:19;22.10;64.60
1091;DHT22;534;48.704;9.122;2022-09-01T17:31:58;22.20;64.10
1091;DHT22;534;48.704;9.122;2022-09-01T17:34:32;22.10;64.30
1091;DHT22;534;48.704;9.122;2022-09-01T17:37:18;22.00;64.70
1091;DHT22;534;48.704;9.122;2022-09-01T17:39:55;22.00;65.00
1091;DHT22;534;48.704;9.122;2022-09-01T17:42:28;22.10;64.90
1091;DHT22;534;48.704;9.122;2022-09-01T17:45:03;22.10;64.90
1091;DHT22;534;48.704;9.122;2022-09-01T17:47:38;22.20;65.40
1091;DHT22;534;48.704;9.122;2022-09-01T17:50:13;22.10;65.00
1091;DHT22;534;48.704;9.122;2022-09-01T17:52:47;22.20;65.30
1091;DHT22;534;48.704;9.122;2022-09-01T17:55:24;22.30;65.00
1091;DHT22;534;48.704;9.122;2022-09-01T17:57:59;22.20;64.80
1091;DHT22;534;48.704;9.122;2022-09-01T18:00:32;22.00;65.20
1091;DHT22;534;48.704;9.122;2022-09-01T18:03:23;22.00;65.50
1091;DHT22;534;48.704;9.122;2022-09-01T18:06:00;22.10;65.10
1091;DHT22;534;48.704;9.122;2022-09-01T18:08:35;22.00;65.60
1091;DHT22;534;48.704;9.122;2022-09-01T18:11:09;22.00;65.80
1091;DHT22;534;48.704;9.122;2022-09-01T18:13:41;22.10;65.80
1091;DHT22;534;48.704;9.122;2022-09-01T18:16:11;22.00;65.70
1091;DHT22;534;48.704;9.122;2022-09-01T18:18:40;22.00;65.60
1091;DHT22;534;48.704;9.122;2022-09-01T18:21:08;22.00;65.60
1091;DHT22;534;48.704;9.122;2022-09-01T18:23:38;22.10;65.40
1091;DHT22;534;48.704;9.122;2022-09-01T18:26:16;22.10;65.50
1091;DHT22;534;48.704;9.122;2022-09-01T18:28:44;22.00;64.90
1091;DHT22;534;48.704;9.122;2022-09-01T18:31:25;21.90;64.80
1091;DHT22;534;48.704;9.122;2022-09-01T18:34:02;22.00;64.70
1091;DHT22;534;48.704;9.122;2022-09-01T18:36:40;22.10;65.10
1091;DHT22;534;48.704;9.122;2022-09-01T18:39:11;22.20;65.00
1091;DHT22;534;48.704;9.122;2022-09-01T18:41:51;22.20;65.60
1091;DHT22;534;48.704;9.122;2022-09-01T18:44:34;22.20;65.70
1091;DHT22;534;48.704;9.122;2022-09-01T18:47:07;22.20;65.90
1091;DHT22;534;48.704;9.122;2022-09-01T18:49:42;22.20;65.90
1091;DHT22;534;48.704;9.122;2022-09-01T18:52:21;22.10;65.60
1091;DHT22;534;48.704;9.122;2022-09-01T18:54:57;22.10;65.90
1091;DHT22;534;48.704;9.122;2022-09-01T18:57:35;22.10;66.10
1091;DHT22;534;48.704;9.122;2022-09-01T19:00:08;22.00;66.30
1091;DHT22;534;48.704;9.122;2022-09-01T19:02:53;22.00;66.20
1091;DHT22;534;48.704;9.122;2022-09-01T19:05:28;21.90;66.70
1091;DHT22;534;48.704;9.122;2022-09-01T19:08:02;21.90;66.80
1091;DHT22;534;48.704;9.122;2022-09-01T19:10:37;21.80;66.90
1091;DHT22;534;48.704;9.122;2022-09-01T19:13:12;21.70;67.20
1091;DHT22;534;48.704;9.122;2022-09-01T19:15:48;21.70;67.60
1091;DHT22;534;48.704;9.122;2022-09-01T19:18:22;21.60;67.60
1091;DHT22;534;48.704;9.122;2022-09-01T19:20:54;21.60;67.70
1091;DHT22;534;48.704;9.122;2022-09-01T19:23:26;21.50;68.00
1091;DHT22;534;48.704;9.122;2022-09-01T19:26:02;21.50;68.00
1091;DHT22;534;48.704;9.122;2022-09-01T19:28:38;21.40;68.10
1091;DHT22;534;48.704;9.122;2022-09-01T19:31:09;21.40;68.20
1091;DHT22;534;48.704;9.122;2022-09-01T19:33:42;21.30;68.50
1091;DHT22;534;48.704;9.122;2022-09-01T19:36:13;21.20;68.90
1091;DHT22;534;48.704;9.122;2022-09-01T19:38:42;21.20;69.00
1091;DHT22;534;48.704;9.122;2022-09-01T19:41:13;21.10;69.20
1091;DHT22;534;48.704;9.122;2022-09-01T19:43:43;21.10;69.50
1091;DHT22;534;48.704;9.122;2022-09-01T19:46:24;21.00;69.60
1091;DHT22;534;48.704;9.122;2022-09-01T19:48:58;21.00;69.70
1091;DHT22;534;48.704;9.122;2022-09-01T19:51:32;21.00;69.90
1091;DHT22;534;48.704;9.122;2022-09-01T19:54:03;20.90;69.80
1091;DHT22;534;48.704;9.122;2022-09-01T19:56:36;20.80;70.10